sensor_id;sensor_type;location;lat;lon;timestamp;P1;durP1;ratioP1;P2;durP2;ratioP2
2624;SDS011;1322;53.256;10.386;2023-04-03T00:01:34;7.27;;;2.03;;
2624;SDS011;1322;53.256;10.386;2023-04-03T00:04:03;6.23;;;1.80;;
2624;SDS011;1322;53.256;10.386;2023-04-03T00:06:30;7.47;;;2.30;;
2624;SDS011;1322;53.256;10.386;2023-04-03T00:08:56;4.83;;;1.73;;
2624;SDS011;1322;53.256;10.386;2023-04-03T00:11:21;6.90;;;2.17;;
2624;SDS011;1322;53.256;10.386;2023-04-03T00:13:47;3.33;;;1.50;;
2624;SDS011;1322;53.256;10.386;2023-04-03T00:16:13;2.13;;;1.27;;
2624;SDS011;1322;53.256;10.386;2023-04-03T00:18:39;7.03;;;2.13;;
2624;SDS011;1322;53.256;10.386;2023-04-03T00:21:05;4.33;;;1.87;;
2624;SDS011;1322;53.256;10.386;2023-04-03T00:23:32;4.50;;;2.10;;
2624;SDS011;1322;53.256;10.386;2023-04-03T00:25:58;6.17;;;2.03;;
2624;SDS011;1322;53.256;10.386;2023-04-03T00:28:24;6.53;;;2.33;;
2624;SDS011;1322;53.256;10.386;2023-04-03T00:30:50;7.37;;;2.13;;
2624;SDS011;1322;53.256;10.386;2023-04-03T00:33:16;9.00;;;2.57;;
2624;SDS011;1322;53.256;10.386;2023-04-03T00:35:42;4.07;;;2.10;;
2624;SDS011;1322;53.256;10.386;2023-04-03T00:38:11;6.53;;;2.27;;
2624;SDS011;1322;53.256;10.386;2023-04-03T00:40:37;4.80;;;2.20;;
2624;SDS011;1322;53.256;10.386;2023-04-03T00:43:13;6.83;;;2.20;;
2624;SDS011;1322;53.256;10.386;2023-04-03T00:45:50;4.00;;;1.70;;
2624;SDS011;1322;53.256;10.386;2023-04-03T00:48:59;7.13;;;2.30;;
2624;SDS011;1322;53.256;10.386;2023-04-03T00:51:14;5.43;;;2.53;;
2624;SDS011;1322;53.256;10.386;2023-04-03T00:53:46;4.07;;;2.30;;
2624;SDS011;1322;53.256;10.386;2023-04-03T00:56:32;2.87;;;2.10;;
2624;SDS011;1322;53.256;10.386;2023-04-03T00:59:08;7.70;;;3.17;;
2624;SDS011;1322;53.256;10.386;2023-04-03T01:01:40;8.00;;;2.10;;
2624;SDS011;1322;53.256;10.386;2023-04-03T01:04:24;6.83;;;2.07;;
2624;SDS011;1322;53.256;10.386;2023-04-03T01:06:58;3.87;;;1.80;;
2624;SDS011;1322;53.256;10.386;2023-04-03T01:09:42;3.27;;;1.87;;
2624;SDS011;1322;53.256;10.386;2023-04-03T01:12:16;6.43;;;2.33;;
2624;SDS011;1322;53.256;10.386;2023-04-03T01:14:44;4.17;;;2.27;;
2624;SDS011;1322;53.256;10.386;2023-04-03T01:18:11;4.37;;;2.53;;
2624;SDS011;1322;53.256;10.386;2023-04-03T01:22:59;3.00;;;1.73;;
2624;SDS011;1322;53.256;10.386;2023-04-03T01:25:43;6.20;;;2.40;;
2624;SDS011;1322;53.256;10.386;2023-04-03T01:28:12;4.20;;;2.40;;
2624;SDS011;1322;53.256;10.386;2023-04-03T01:33:40;4.90;;;2.10;;
2624;SDS011;1322;53.256;10.386;2023-04-03T01:36:07;5.63;;;2.70;;
2624;SDS011;1322;53.256;10.386;2023-04-03T01:38:33;8.00;;;2.73;;
2624;SDS011;1322;53.256;10.386;2023-04-03T01:40:59;5.57;;;2.87;;
2624;SDS011;1322;53.256;10.386;2023-04-03T01:43:26;8.03;;;2.20;;
2624;SDS011;1322;53.256;10.386;2023-04-03T01:45:51;7.30;;;2.10;;
2624;SDS011;1322;53.256;10.386;2023-04-03T01:48:19;6.40;;;2.43;;
2624;SDS011;1322;53.256;10.386;2023-04-03T01:50:45;5.20;;;2.30;;
2624;SDS011;1322;53.256;10.386;2023-04-03T01:53:11;3.63;;;1.97;;
2624;SDS011;1322;53.256;10.386;2023-04-03T01:55:38;5.53;;;3.90;;
2624;SDS011;1322;53.256;10.386;2023-04-03T01:58:04;6.50;;;2.30;;
2624;SDS011;1322;53.256;10.386;2023-04-03T02:00:29;3.57;;;2.13;;
2624;SDS011;1322;53.256;10.386;2023-04-03T02:02:55;9.57;;;4.00;;
2624;SDS011;1322;53.256;10.386;2023-04-03T02:05:21;5.00;;;3.00;;
2624;SDS011;1322;53.256;10.386;2023-04-03T02:07:47;3.20;;;1.77;;
2624;SDS011;1322;53.256;10.386;2023-04-03T02:10:13;3.90;;;2.63;;
2624;SDS011;1322;53.256;10.386;2023-04-03T02:12:38;4.83;;;2.57;;
2624;SDS011;1322;53.256;10.386;2023-04-03T02:15:04;2.30;;;1.70;;
2624;SDS011;1322;53.256;10.386;2023-04-03T02:17:31;5.47;;;1.97;;
2624;SDS011;1322;53.256;10.386;2023-04-03T02:19:56;6.27;;;1.90;;
2624;SDS011;1322;53.256;10.386;2023-04-03T02:22:22;8.00;;;3.10;;
2624;SDS011;1322;53.256;10.386;2023-04-03T02:24:48;4.70;;;2.23;;
2624;SDS011;1322;53.256;10.386;2023-04-03T02:27:14;7.60;;;2.37;;
2624;SDS011;1322;53.256;10.386;2023-04-03T02:29:39;4.93;;;2.97;;
2624;SDS011;1322;53.256;10.386;2023-04-03T02:32:05;6.17;;;2.23;;
2624;SDS011;1322;53.256;10.386;2023-04-03T02:34:30;4.50;;;2.27;;
2624;SDS011;1322;53.256;10.386;2023-04-03T02:36:56;4.10;;;2.43;;
2624;SDS011;1322;53.256;10.386;2023-04-03T02:39:22;4.10;;;2.60;;
2624;SDS011;1322;53.256;10.386;2023-04-03T02:41:47;6.10;;;2.67;;
2624;SDS011;1322;53.256;10.386;2023-04-03T02:44:13;6.30;;;2.50;;
2624;SDS011;1322;53.256;10.386;2023-04-03T02:46:39;3.00;;;2.00;;
2624;SDS011;1322;53.256;10.386;2023-04-03T02:49:07;6.10;;;2.73;;
2624;SDS011;1322;53.256;10.386;2023-04-03T02:51:33;3.87;;;2.27;;
2624;SDS011;1322;53.256;10.386;2023-04-03T02:53:58;7.33;;;2.53;;
2624;SDS011;1322;53.256;10.386;2023-04-03T02:56:24;7.13;;;2.70;;
2624;SDS011;1322;53.256;10.386;2023-04-03T02:58:51;7.40;;;2.03;;
2624;SDS011;1322;53.256;10.386;2023-04-03T03:01:17;4.43;;;2.20;;
2624;SDS011;1322;53.256;10.386;2023-04-03T03:03:43;3.83;;;2.43;;
2624;SDS011;1322;53.256;10.386;2023-04-03T03:06:11;3.30;;;2.80;;
2624;SDS011;1322;53.256;10.386;2023-04-03T03:08:39;7.37;;;2.23;;
2624;SDS011;1322;53.256;10.386;2023-04-03T03:11:06;7.00;;;2.30;;
2624;SDS011;1322;53.256;10.386;2023-04-03T03:13:32;4.83;;;2.73;;
2624;SDS011;1322;53.256;10.386;2023-04-03T03:15:58;5.80;;;2.63;;
2624;SDS011;1322;53.256;10.386;2023-04-03T03:18:24;3.30;;;2.20;;
2624;SDS011;1322;53.256;10.386;2023-04-03T03:20:51;9.00;;;2.23;;
2624;SDS011;1322;53.256;10.386;2023-04-03T03:23:17;4.03;;;1.90;;
2624;SDS011;1322;53.256;10.386;2023-04-03T03:25:43;4.27;;;2.40;;
2624;SDS011;1322;53.256;10.386;2023-04-03T03:28:09;5.83;;;2.60;;
2624;SDS011;1322;53.256;10.386;2023-04-03T03:30:35;7.70;;;2.43;;
2624;SDS011;1322;53.256;10.386;2023-04-03T03:33:00;13.27;;;3.57;;
2624;SDS011;1322;53.256;10.386;2023-04-03T03:35:26;3.17;;;2.07;;
2624;SDS011;1322;53.256;10.386;2023-04-03T03:37:52;5.90;;;2.10;;
2624;SDS011;1322;53.256;10.386;2023-04-03T03:40:17;3.73;;;2.50;;
2624;SDS011;1322;53.256;10.386;2023-04-03T03:42:43;8.00;;;2.40;;
2624;SDS011;1322;53.256;10.386;2023-04-03T03:45:09;4.13;;;2.20;;
2624;SDS011;1322;53.256;10.386;2023-04-03T03:47:35;8.50;;;2.40;;
2624;SDS011;1322;53.256;10.386;2023-04-03T03:50:01;8.83;;;2.47;;
2624;SDS011;1322;53.256;10.386;2023-04-03T03:52:27;4.33;;;1.83;;
2624;SDS011;1322;53.256;10.386;2023-04-03T03:54:53;6.93;;;2.83;;
2624;SDS011;1322;53.256;10.386;2023-04-03T03:57:18;3.40;;;2.17;;
2624;SDS011;1322;53.256;10.386;2023-04-03T03:59:44;10.00;;;2.77;;
2624;SDS011;1322;53.256;10.386;2023-04-03T04:02:10;6.97;;;2.77;;
2624;SDS011;1322;53.256;10.386;2023-04-03T04:04:36;3.90;;;1.40;;
2624;SDS011;1322;53.256;10.386;2023-04-03T04:07:02;3.33;;;1.90;;
2624;SDS011;1322;53.256;10.386;2023-04-03T04:09:28;5.43;;;2.03;;
2624;SDS011;1322;53.256;10.386;2023-04-03T04:11:54;7.00;;;3.17;;
2624;SDS011;1322;53.256;10.386;2023-04-03T04:14:19;4.03;;;2.33;;
2624;SDS011;1322;53.256;10.386;2023-04-03T04:16:46;9.70;;;2.30;;
2624;SDS011;1322;53.256;10.386;2023-04-03T04:19:12;5.60;;;2.20;;
2624;SDS011;1322;53.256;10.386;2023-04-03T04:21:38;3.20;;;2.30;;
2624;SDS011;1322;53.256;10.386;2023-04-03T04:24:04;4.90;;;2.10;;
2624;SDS011;1322;53.256;10.386;2023-04-03T04:26:33;4.83;;;1.80;;
2624;SDS011;1322;53.256;10.386;2023-04-03T04:28:59;3.10;;;1.80;;
2624;SDS011;1322;53.256;10.386;2023-04-03T04:31:25;6.30;;;2.17;;
2624;SDS011;1322;53.256;10.386;2023-04-03T04:33:51;8.07;;;3.43;;
2624;SDS011;1322;53.256;10.386;2023-04-03T04:36:17;5.70;;;2.70;;
2624;SDS011;1322;53.256;10.386;2023-04-03T04:38:43;3.17;;;2.43;;
2624;SDS011;1322;53.256;10.386;2023-04-03T04:41:12;6.20;;;2.17;;
2624;SDS011;1322;53.256;10.386;2023-04-03T04:43:37;5.27;;;2.87;;
2624;SDS011;1322;53.256;10.386;2023-04-03T04:46:04;6.33;;;2.33;;
2624;SDS011;1322;53.256;10.386;2023-04-03T04:48:32;3.43;;;1.60;;
2624;SDS011;1322;53.256;10.386;2023-04-03T04:50:58;3.53;;;1.97;;
2624;SDS011;1322;53.256;10.386;2023-04-03T04:53:24;7.37;;;3.53;;
2624;SDS011;1322;53.256;10.386;2023-04-03T04:55:50;2.80;;;1.90;;
2624;SDS011;1322;53.256;10.386;2023-04-03T04:58:19;5.70;;;3.07;;
2624;SDS011;1322;53.256;10.386;2023-04-03T05:00:45;5.33;;;3.23;;
2624;SDS011;1322;53.256;10.386;2023-04-03T05:03:11;3.70;;;2.50;;
2624;SDS011;1322;53.256;10.386;2023-04-03T05:05:37;5.43;;;3.47;;
2624;SDS011;1322;53.256;10.386;2023-04-03T05:08:03;5.23;;;3.00;;
2624;SDS011;1322;53.256;10.386;2023-04-03T05:10:29;8.77;;;2.60;;
2624;SDS011;1322;53.256;10.386;2023-04-03T05:12:56;6.93;;;2.13;;
2624;SDS011;1322;53.256;10.386;2023-04-03T05:15:22;11.30;;;2.90;;
2624;SDS011;1322;53.256;10.386;2023-04-03T05:17:47;7.40;;;2.20;;
2624;SDS011;1322;53.256;10.386;2023-04-03T05:20:13;3.63;;;2.20;;
2624;SDS011;1322;53.256;10.386;2023-04-03T05:22:39;8.00;;;2.83;;
2624;SDS011;1322;53.256;10.386;2023-04-03T05:25:04;8.90;;;2.80;;
2624;SDS011;1322;53.256;10.386;2023-04-03T05:27:31;4.93;;;3.10;;
2624;SDS011;1322;53.256;10.386;2023-04-03T05:29:56;7.80;;;2.77;;
2624;SDS011;1322;53.256;10.386;2023-04-03T05:32:25;5.20;;;2.73;;
2624;SDS011;1322;53.256;10.386;2023-04-03T05:34:52;9.30;;;3.10;;
2624;SDS011;1322;53.256;10.386;2023-04-03T05:37:18;3.37;;;2.30;;
2624;SDS011;1322;53.256;10.386;2023-04-03T05:39:44;6.07;;;2.77;;
2624;SDS011;1322;53.256;10.386;2023-04-03T05:42:10;8.07;;;2.70;;
2624;SDS011;1322;53.256;10.386;2023-04-03T05:44:37;3.90;;;2.70;;
2624;SDS011;1322;53.256;10.386;2023-04-03T05:47:03;6.37;;;2.93;;
2624;SDS011;1322;53.256;10.386;2023-04-03T05:49:29;7.07;;;3.07;;
2624;SDS011;1322;53.256;10.386;2023-04-03T05:51:55;3.30;;;2.10;;
2624;SDS011;1322;53.256;10.386;2023-04-03T05:54:22;3.70;;;2.63;;
2624;SDS011;1322;53.256;10.386;2023-04-03T05:56:50;3.03;;;2.13;;
2624;SDS011;1322;53.256;10.386;2023-04-03T05:59:16;3.00;;;2.40;;
2624;SDS011;1322;53.256;10.386;2023-04-03T06:01:43;4.90;;;2.67;;
2624;SDS011;1322;53.256;10.386;2023-04-03T06:04:09;7.10;;;2.50;;
2624;SDS011;1322;53.256;10.386;2023-04-03T06:09:15;4.87;;;2.37;;
2624;SDS011;1322;53.256;10.386;2023-04-03T06:11:41;3.40;;;2.13;;
2624;SDS011;1322;53.256;10.386;2023-04-03T06:14:07;8.57;;;2.27;;
2624;SDS011;1322;53.256;10.386;2023-04-03T06:16:33;7.20;;;2.60;;
2624;SDS011;1322;53.256;10.386;2023-04-03T06:18:59;3.93;;;1.97;;
2624;SDS011;1322;53.256;10.386;2023-04-03T06:21:25;3.70;;;2.10;;
2624;SDS011;1322;53.256;10.386;2023-04-03T06:23:51;6.23;;;2.10;;
2624;SDS011;1322;53.256;10.386;2023-04-03T06:26:17;6.07;;;2.70;;
2624;SDS011;1322;53.256;10.386;2023-04-03T06:28:43;6.20;;;2.20;;
2624;SDS011;1322;53.256;10.386;2023-04-03T06:31:08;5.57;;;2.90;;
2624;SDS011;1322;53.256;10.386;2023-04-03T06:33:34;3.80;;;2.27;;
2624;SDS011;1322;53.256;10.386;2023-04-03T06:36:03;4.80;;;2.97;;
2624;SDS011;1322;53.256;10.386;2023-04-03T06:38:29;5.00;;;3.07;;
2624;SDS011;1322;53.256;10.386;2023-04-03T06:40:55;3.53;;;2.60;;
2624;SDS011;1322;53.256;10.386;2023-04-03T06:43:22;6.13;;;2.43;;
2624;SDS011;1322;53.256;10.386;2023-04-03T06:45:48;3.90;;;2.30;;
2624;SDS011;1322;53.256;10.386;2023-04-03T06:48:13;10.30;;;2.70;;
2624;SDS011;1322;53.256;10.386;2023-04-03T06:50:39;5.00;;;3.10;;
2624;SDS011;1322;53.256;10.386;2023-04-03T06:53:05;4.33;;;2.83;;
2624;SDS011;1322;53.256;10.386;2023-04-03T06:55:32;4.87;;;2.80;;
2624;SDS011;1322;53.256;10.386;2023-04-03T06:57:57;12.73;;;5.20;;
2624;SDS011;1322;53.256;10.386;2023-04-03T07:00:23;6.63;;;2.97;;
2624;SDS011;1322;53.256;10.386;2023-04-03T07:02:49;5.13;;;2.27;;
2624;SDS011;1322;53.256;10.386;2023-04-03T07:05:15;3.57;;;2.03;;
2624;SDS011;1322;53.256;10.386;2023-04-03T07:07:41;2.80;;;1.30;;
2624;SDS011;1322;53.256;10.386;2023-04-03T07:10:07;5.20;;;1.90;;
2624;SDS011;1322;53.256;10.386;2023-04-03T07:12:33;9.07;;;2.30;;
2624;SDS011;1322;53.256;10.386;2023-04-03T07:14:59;3.43;;;1.60;;
2624;SDS011;1322;53.256;10.386;2023-04-03T07:17:24;5.00;;;2.70;;
2624;SDS011;1322;53.256;10.386;2023-04-03T07:19:50;2.40;;;1.93;;
2624;SDS011;1322;53.256;10.386;2023-04-03T07:22:16;5.03;;;2.30;;
2624;SDS011;1322;53.256;10.386;2023-04-03T07:24:42;5.30;;;1.63;;
2624;SDS011;1322;53.256;10.386;2023-04-03T07:27:08;5.40;;;1.97;;
2624;SDS011;1322;53.256;10.386;2023-04-03T07:29:34;3.23;;;2.03;;
2624;SDS011;1322;53.256;10.386;2023-04-03T07:32:01;7.73;;;1.93;;
2624;SDS011;1322;53.256;10.386;2023-04-03T07:34:27;2.43;;;1.40;;
2624;SDS011;1322;53.256;10.386;2023-04-03T07:36:53;3.87;;;1.60;;
2624;SDS011;1322;53.256;10.386;2023-04-03T07:39:18;3.17;;;1.53;;
2624;SDS011;1322;53.256;10.386;2023-04-03T07:41:44;7.80;;;1.60;;
2624;SDS011;1322;53.256;10.386;2023-04-03T07:44:10;5.27;;;1.33;;
2624;SDS011;1322;53.256;10.386;2023-04-03T07:46:36;3.93;;;1.50;;
2624;SDS011;1322;53.256;10.386;2023-04-03T07:49:03;3.90;;;1.60;;
2624;SDS011;1322;53.256;10.386;2023-04-03T07:51:28;3.17;;;1.57;;
2624;SDS011;1322;53.256;10.386;2023-04-03T07:53:55;4.90;;;1.70;;
2624;SDS011;1322;53.256;10.386;2023-04-03T07:56:20;6.77;;;1.73;;
2624;SDS011;1322;53.256;10.386;2023-04-03T07:58:46;5.50;;;1.97;;
2624;SDS011;1322;53.256;10.386;2023-04-03T08:01:15;3.10;;;1.70;;
2624;SDS011;1322;53.256;10.386;2023-04-03T08:03:40;2.57;;;1.40;;
2624;SDS011;1322;53.256;10.386;2023-04-03T08:06:07;6.73;;;1.60;;
2624;SDS011;1322;53.256;10.386;2023-04-03T08:08:33;4.83;;;1.67;;
2624;SDS011;1322;53.256;10.386;2023-04-03T08:11:00;3.27;;;1.67;;
2624;SDS011;1322;53.256;10.386;2023-04-03T08:13:27;1.67;;;1.30;;
2624;SDS011;1322;53.256;10.386;2023-04-03T08:15:54;6.53;;;1.30;;
2624;SDS011;1322;53.256;10.386;2023-04-03T08:18:22;2.80;;;1.30;;
2624;SDS011;1322;53.256;10.386;2023-04-03T08:20:50;7.73;;;2.17;;
2624;SDS011;1322;53.256;10.386;2023-04-03T08:23:16;3.53;;;1.63;;
2624;SDS011;1322;53.256;10.386;2023-04-03T08:25:43;3.37;;;1.63;;
2624;SDS011;1322;53.256;10.386;2023-04-03T08:28:09;2.50;;;1.27;;
2624;SDS011;1322;53.256;10.386;2023-04-03T08:30:38;5.37;;;1.20;;
2624;SDS011;1322;53.256;10.386;2023-04-03T08:33:05;2.80;;;1.40;;
2624;SDS011;1322;53.256;10.386;2023-04-03T08:35:32;5.03;;;1.30;;
2624;SDS011;1322;53.256;10.386;2023-04-03T08:37:57;3.00;;;1.33;;
2624;SDS011;1322;53.256;10.386;2023-04-03T08:40:23;5.43;;;1.20;;
2624;SDS011;1322;53.256;10.386;2023-04-03T08:42:51;4.10;;;1.20;;
2624;SDS011;1322;53.256;10.386;2023-04-03T08:48:50;4.57;;;1.27;;
2624;SDS011;1322;53.256;10.386;2023-04-03T08:51:11;3.93;;;1.50;;
2624;SDS011;1322;53.256;10.386;2023-04-03T08:53:41;2.43;;;1.20;;
2624;SDS011;1322;53.256;10.386;2023-04-03T08:56:21;4.23;;;1.40;;
2624;SDS011;1322;53.256;10.386;2023-04-03T08:58:50;4.60;;;1.30;;
2624;SDS011;1322;53.256;10.386;2023-04-03T09:01:21;2.33;;;0.93;;
2624;SDS011;1322;53.256;10.386;2023-04-03T09:04:00;2.50;;;1.17;;
2624;SDS011;1322;53.256;10.386;2023-04-03T09:06:29;1.83;;;1.10;;
2624;SDS011;1322;53.256;10.386;2023-04-03T09:15:02;3.50;;;1.07;;
2624;SDS011;1322;53.256;10.386;2023-04-03T09:17:53;1.37;;;1.00;;
2624;SDS011;1322;53.256;10.386;2023-04-03T09:23:44;2.43;;;1.30;;
2624;SDS011;1322;53.256;10.386;2023-04-03T09:26:23;2.07;;;1.40;;
2624;SDS011;1322;53.256;10.386;2023-04-03T09:29:01;3.07;;;1.33;;
2624;SDS011;1322;53.256;10.386;2023-04-03T09:31:38;4.10;;;1.00;;
2624;SDS011;1322;53.256;10.386;2023-04-03T09:34:14;2.10;;;1.30;;
2624;SDS011;1322;53.256;10.386;2023-04-03T09:36:41;2.20;;;1.50;;
2624;SDS011;1322;53.256;10.386;2023-04-03T09:39:16;1.50;;;1.20;;
2624;SDS011;1322;53.256;10.386;2023-04-03T09:42:05;2.33;;;0.93;;
2624;SDS011;1322;53.256;10.386;2023-04-03T09:44:31;1.30;;;1.10;;
2624;SDS011;1322;53.256;10.386;2023-04-03T09:49:50;1.40;;;0.90;;
2624;SDS011;1322;53.256;10.386;2023-04-03T09:52:34;1.80;;;0.90;;
2624;SDS011;1322;53.256;10.386;2023-04-03T09:55:06;3.00;;;1.10;;
2624;SDS011;1322;53.256;10.386;2023-04-03T09:57:52;2.20;;;1.43;;
2624;SDS011;1322;53.256;10.386;2023-04-03T10:00:23;2.47;;;1.00;;
2624;SDS011;1322;53.256;10.386;2023-04-03T10:02:55;2.50;;;1.13;;
2624;SDS011;1322;53.256;10.386;2023-04-03T10:05:27;12.73;;;2.30;;
2624;SDS011;1322;53.256;10.386;2023-04-03T10:10:46;2.03;;;1.60;;
2624;SDS011;1322;53.256;10.386;2023-04-03T10:13:17;2.70;;;1.30;;
2624;SDS011;1322;53.256;10.386;2023-04-03T10:15:48;2.53;;;1.07;;
2624;SDS011;1322;53.256;10.386;2023-04-03T10:23:51;2.13;;;1.40;;
2624;SDS011;1322;53.256;10.386;2023-04-03T10:43:09;2.80;;;1.50;;
2624;SDS011;1322;53.256;10.386;2023-04-03T10:45:56;2.80;;;1.40;;
2624;SDS011;1322;53.256;10.386;2023-04-03T10:51:38;6.40;;;1.73;;
2624;SDS011;1322;53.256;10.386;2023-04-03T10:54:30;1.60;;;1.20;;
2624;SDS011;1322;53.256;10.386;2023-04-03T10:57:05;3.20;;;1.73;;
2624;SDS011;1322;53.256;10.386;2023-04-03T11:02:14;2.20;;;1.40;;
2624;SDS011;1322;53.256;10.386;2023-04-03T11:04:48;3.40;;;2.00;;
2624;SDS011;1322;53.256;10.386;2023-04-03T11:07:22;1.43;;;1.10;;
2624;SDS011;1322;53.256;10.386;2023-04-03T11:10:14;2.67;;;1.13;;
2624;SDS011;1322;53.256;10.386;2023-04-03T11:12:51;4.07;;;1.60;;
2624;SDS011;1322;53.256;10.386;2023-04-03T11:15:23;2.80;;;1.23;;
2624;SDS011;1322;53.256;10.386;2023-04-03T11:21:04;1.63;;;1.03;;
2624;SDS011;1322;53.256;10.386;2023-04-03T11:23:49;1.80;;;1.30;;
2624;SDS011;1322;53.256;10.386;2023-04-03T11:26:23;6.87;;;1.43;;
2624;SDS011;1322;53.256;10.386;2023-04-03T11:28:58;2.80;;;1.10;;
2624;SDS011;1322;53.256;10.386;2023-04-03T11:36:32;2.80;;;1.00;;
2624;SDS011;1322;53.256;10.386;2023-04-03T11:39:10;3.67;;;1.40;;
2624;SDS011;1322;53.256;10.386;2023-04-03T11:41:46;3.33;;;1.40;;
2624;SDS011;1322;53.256;10.386;2023-04-03T11:44:29;4.50;;;1.50;;
2624;SDS011;1322;53.256;10.386;2023-04-03T11:46:58;3.33;;;1.40;;
2624;SDS011;1322;53.256;10.386;2023-04-03T12:05:53;3.70;;;1.67;;
2624;SDS011;1322;53.256;10.386;2023-04-03T12:16:01;2.90;;;1.40;;
2624;SDS011;1322;53.256;10.386;2023-04-03T12:21:09;4.90;;;1.80;;
2624;SDS011;1322;53.256;10.386;2023-04-03T12:23:56;2.97;;;1.80;;
2624;SDS011;1322;53.256;10.386;2023-04-03T12:26:43;4.17;;;2.20;;
2624;SDS011;1322;53.256;10.386;2023-04-03T12:29:14;2.30;;;1.37;;
2624;SDS011;1322;53.256;10.386;2023-04-03T12:42:42;1.80;;;1.10;;
2624;SDS011;1322;53.256;10.386;2023-04-03T12:45:56;2.40;;;1.37;;
2624;SDS011;1322;53.256;10.386;2023-04-03T12:48:25;3.37;;;1.60;;
2624;SDS011;1322;53.256;10.386;2023-04-03T12:50:53;1.67;;;1.20;;
2624;SDS011;1322;53.256;10.386;2023-04-03T12:53:27;2.63;;;1.10;;
2624;SDS011;1322;53.256;10.386;2023-04-03T12:56:18;3.10;;;1.57;;
2624;SDS011;1322;53.256;10.386;2023-04-03T12:58:46;2.23;;;1.27;;
2624;SDS011;1322;53.256;10.386;2023-04-03T13:01:13;2.13;;;1.10;;
2624;SDS011;1322;53.256;10.386;2023-04-03T13:03:44;4.10;;;1.30;;
2624;SDS011;1322;53.256;10.386;2023-04-03T13:06:17;2.40;;;1.10;;
2624;SDS011;1322;53.256;10.386;2023-04-03T13:08:49;2.90;;;1.47;;
2624;SDS011;1322;53.256;10.386;2023-04-03T13:11:15;2.47;;;1.47;;
2624;SDS011;1322;53.256;10.386;2023-04-03T13:13:53;3.40;;;1.67;;
2624;SDS011;1322;53.256;10.386;2023-04-03T13:16:20;1.30;;;1.10;;
2624;SDS011;1322;53.256;10.386;2023-04-03T13:18:49;4.17;;;1.40;;
2624;SDS011;1322;53.256;10.386;2023-04-03T13:21:18;2.70;;;1.23;;
2624;SDS011;1322;53.256;10.386;2023-04-03T13:23:49;2.37;;;1.23;;
2624;SDS011;1322;53.256;10.386;2023-04-03T13:26:17;1.87;;;1.00;;
2624;SDS011;1322;53.256;10.386;2023-04-03T13:28:45;2.20;;;1.20;;
2624;SDS011;1322;53.256;10.386;2023-04-03T13:33:39;2.90;;;1.37;;
2624;SDS011;1322;53.256;10.386;2023-04-03T13:36:18;3.53;;;1.30;;
2624;SDS011;1322;53.256;10.386;2023-04-03T13:38:56;3.00;;;1.50;;
2624;SDS011;1322;53.256;10.386;2023-04-03T13:41:25;3.27;;;1.30;;
2624;SDS011;1322;53.256;10.386;2023-04-03T13:43:55;3.30;;;1.70;;
2624;SDS011;1322;53.256;10.386;2023-04-03T13:46:25;2.47;;;1.20;;
2624;SDS011;1322;53.256;10.386;2023-04-03T13:48:53;6.70;;;1.53;;
2624;SDS011;1322;53.256;10.386;2023-04-03T13:51:25;1.73;;;1.13;;
2624;SDS011;1322;53.256;10.386;2023-04-03T13:56:36;2.83;;;1.23;;
2624;SDS011;1322;53.256;10.386;2023-04-03T14:01:34;2.47;;;1.40;;
2624;SDS011;1322;53.256;10.386;2023-04-03T14:06:42;4.10;;;1.17;;
2624;SDS011;1322;53.256;10.386;2023-04-03T14:09:07;2.90;;;1.70;;
2624;SDS011;1322;53.256;10.386;2023-04-03T14:11:33;1.90;;;1.27;;
2624;SDS011;1322;53.256;10.386;2023-04-03T14:14:01;1.77;;;0.90;;
2624;SDS011;1322;53.256;10.386;2023-04-03T14:16:32;1.80;;;1.00;;
2624;SDS011;1322;53.256;10.386;2023-04-03T14:19:02;3.53;;;1.40;;
2624;SDS011;1322;53.256;10.386;2023-04-03T14:21:27;3.83;;;1.40;;
2624;SDS011;1322;53.256;10.386;2023-04-03T14:23:53;3.47;;;1.60;;
2624;SDS011;1322;53.256;10.386;2023-04-03T14:26:20;4.20;;;1.50;;
2624;SDS011;1322;53.256;10.386;2023-04-03T14:28:49;1.93;;;1.13;;
2624;SDS011;1322;53.256;10.386;2023-04-03T14:31:17;1.23;;;0.93;;
2624;SDS011;1322;53.256;10.386;2023-04-03T14:33:44;2.13;;;1.30;;
2624;SDS011;1322;53.256;10.386;2023-04-03T14:36:18;3.50;;;1.10;;
2624;SDS011;1322;53.256;10.386;2023-04-03T14:38:48;2.17;;;1.00;;
2624;SDS011;1322;53.256;10.386;2023-04-03T14:41:16;3.87;;;1.37;;
2624;SDS011;1322;53.256;10.386;2023-04-03T14:43:43;1.83;;;1.30;;
2624;SDS011;1322;53.256;10.386;2023-04-03T14:46:14;1.40;;;1.10;;
2624;SDS011;1322;53.256;10.386;2023-04-03T14:48:46;3.93;;;2.03;;
2624;SDS011;1322;53.256;10.386;2023-04-03T14:51:12;1.50;;;1.20;;
2624;SDS011;1322;53.256;10.386;2023-04-03T14:53:40;2.90;;;1.93;;
2624;SDS011;1322;53.256;10.386;2023-04-03T14:56:11;2.80;;;1.10;;
2624;SDS011;1322;53.256;10.386;2023-04-03T14:58:52;2.30;;;1.80;;
2624;SDS011;1322;53.256;10.386;2023-04-03T15:01:21;1.60;;;0.80;;
2624;SDS011;1322;53.256;10.386;2023-04-03T15:03:47;1.50;;;1.00;;
2624;SDS011;1322;53.256;10.386;2023-04-03T15:06:13;2.37;;;2.00;;
2624;SDS011;1322;53.256;10.386;2023-04-03T15:08:40;2.17;;;1.53;;
2624;SDS011;1322;53.256;10.386;2023-04-03T15:11:10;2.77;;;1.73;;
2624;SDS011;1322;53.256;10.386;2023-04-03T15:13:36;2.27;;;1.03;;
2624;SDS011;1322;53.256;10.386;2023-04-03T15:16:02;2.27;;;1.20;;
2624;SDS011;1322;53.256;10.386;2023-04-03T15:18:31;5.70;;;1.80;;
2624;SDS011;1322;53.256;10.386;2023-04-03T15:21:02;6.03;;;1.50;;
2624;SDS011;1322;53.256;10.386;2023-04-03T15:23:28;4.60;;;1.17;;
2624;SDS011;1322;53.256;10.386;2023-04-03T15:25:55;1.27;;;1.03;;
2624;SDS011;1322;53.256;10.386;2023-04-03T15:30:53;5.07;;;1.50;;
2624;SDS011;1322;53.256;10.386;2023-04-03T15:33:19;5.23;;;2.03;;
2624;SDS011;1322;53.256;10.386;2023-04-03T15:35:45;2.90;;;1.30;;
2624;SDS011;1322;53.256;10.386;2023-04-03T15:38:11;2.27;;;1.33;;
2624;SDS011;1322;53.256;10.386;2023-04-03T15:40:37;2.33;;;1.10;;
2624;SDS011;1322;53.256;10.386;2023-04-03T15:43:04;2.53;;;1.03;;
2624;SDS011;1322;53.256;10.386;2023-04-03T15:45:30;1.50;;;1.03;;
2624;SDS011;1322;53.256;10.386;2023-04-03T15:47:58;3.93;;;1.60;;
2624;SDS011;1322;53.256;10.386;2023-04-03T15:50:24;2.67;;;1.30;;
2624;SDS011;1322;53.256;10.386;2023-04-03T15:52:51;1.20;;;0.90;;
2624;SDS011;1322;53.256;10.386;2023-04-03T15:55:22;3.03;;;1.37;;
2624;SDS011;1322;53.256;10.386;2023-04-03T15:57:49;3.03;;;1.83;;
2624;SDS011;1322;53.256;10.386;2023-04-03T16:00:16;3.20;;;1.40;;
2624;SDS011;1322;53.256;10.386;2023-04-03T16:02:42;3.60;;;1.50;;
2624;SDS011;1322;53.256;10.386;2023-04-03T16:05:10;1.57;;;1.10;;
2624;SDS011;1322;53.256;10.386;2023-04-03T16:07:37;2.30;;;1.73;;
2624;SDS011;1322;53.256;10.386;2023-04-03T16:10:04;2.60;;;1.37;;
2624;SDS011;1322;53.256;10.386;2023-04-03T16:12:30;2.20;;;1.23;;
2624;SDS011;1322;53.256;10.386;2023-04-03T16:14:56;1.70;;;1.10;;
2624;SDS011;1322;53.256;10.386;2023-04-03T16:17:22;1.50;;;0.80;;
2624;SDS011;1322;53.256;10.386;2023-04-03T16:19:51;1.73;;;1.20;;
2624;SDS011;1322;53.256;10.386;2023-04-03T16:22:18;4.10;;;1.40;;
2624;SDS011;1322;53.256;10.386;2023-04-03T16:24:44;5.50;;;1.47;;
2624;SDS011;1322;53.256;10.386;2023-04-03T16:27:10;1.63;;;1.20;;
2624;SDS011;1322;53.256;10.386;2023-04-03T16:29:35;3.50;;;1.30;;
2624;SDS011;1322;53.256;10.386;2023-04-03T16:32:01;3.13;;;1.40;;
2624;SDS011;1322;53.256;10.386;2023-04-03T16:34:27;3.40;;;1.53;;
2624;SDS011;1322;53.256;10.386;2023-04-03T16:36:55;2.70;;;1.90;;
2624;SDS011;1322;53.256;10.386;2023-04-03T16:39:21;3.73;;;1.57;;
2624;SDS011;1322;53.256;10.386;2023-04-03T16:41:47;2.50;;;1.13;;
2624;SDS011;1322;53.256;10.386;2023-04-03T16:44:12;3.97;;;1.80;;
2624;SDS011;1322;53.256;10.386;2023-04-03T16:46:38;4.10;;;2.60;;
2624;SDS011;1322;53.256;10.386;2023-04-03T16:49:04;3.20;;;1.30;;
2624;SDS011;1322;53.256;10.386;2023-04-03T16:51:30;2.20;;;1.30;;
2624;SDS011;1322;53.256;10.386;2023-04-03T16:53:56;2.70;;;1.20;;
2624;SDS011;1322;53.256;10.386;2023-04-03T16:56:23;3.87;;;1.90;;
2624;SDS011;1322;53.256;10.386;2023-04-03T16:58:49;2.20;;;1.47;;
2624;SDS011;1322;53.256;10.386;2023-04-03T17:01:16;6.70;;;1.70;;
2624;SDS011;1322;53.256;10.386;2023-04-03T17:03:43;1.97;;;1.40;;